sensor_id;sensor_type;location;lat;lon;timestamp;P1;durP1;ratioP1;P2;durP2;ratioP2
5662;SDS011;2854;42.692;23.364;2022-08-21T00:01:52;5.47;;;4.90;;
5662;SDS011;2854;42.692;23.364;2022-08-21T00:04:17;5.60;;;5.07;;
5662;SDS011;2854;42.692;23.364;2022-08-21T00:06:42;5.90;;;5.10;;
5662;SDS011;2854;42.692;23.364;2022-08-21T00:09:08;5.43;;;4.27;;
5662;SDS011;2854;42.692;23.364;2022-08-21T00:11:35;6.33;;;4.00;;
5662;SDS011;2854;42.692;23.364;2022-08-21T00:14:01;12.17;;;5.10;;
5662;SDS011;2854;42.692;23.364;2022-08-21T00:16:26;5.60;;;4.57;;
5662;SDS011;2854;42.692;23.364;2022-08-21T00:18:52;4.37;;;3.50;;
5662;SDS011;2854;42.692;23.364;2022-08-21T00:21:17;4.83;;;4.23;;
5662;SDS011;2854;42.692;23.364;2022-08-21T00:23:42;6.87;;;4.10;;
5662;SDS011;2854;42.692;23.364;2022-08-21T00:26:08;5.10;;;4.60;;
5662;SDS011;2854;42.692;23.364;2022-08-21T00:28:33;6.23;;;4.57;;
5662;SDS011;2854;42.692;23.364;2022-08-21T00:30:59;6.73;;;4.40;;
5662;SDS011;2854;42.692;23.364;2022-08-21T00:33:24;4.93;;;3.87;;
5662;SDS011;2854;42.692;23.364;2022-08-21T00:35:50;7.93;;;5.73;;
5662;SDS011;2854;42.692;23.364;2022-08-21T00:38:15;9.47;;;4.63;;
5662;SDS011;2854;42.692;23.364;2022-08-21T00:43:06;6.23;;;4.73;;
5662;SDS011;2854;42.692;23.364;2022-08-21T00:45:33;5.97;;;4.50;;
5662;SDS011;2854;42.692;23.364;2022-08-21T00:47:58;7.63;;;5.93;;
5662;SDS011;2854;42.692;23.364;2022-08-21T00:50:25;10.60;;;5.30;;
5662;SDS011;2854;42.692;23.364;2022-08-21T00:52:51;9.33;;;5.17;;
5662;SDS011;2854;42.692;23.364;2022-08-21T00:55:17;5.10;;;4.57;;
5662;SDS011;2854;42.692;23.364;2022-08-21T00:57:45;6.03;;;5.40;;
5662;SDS011;2854;42.692;23.364;2022-08-21T01:00:14;7.40;;;5.33;;
5662;SDS011;2854;42.692;23.364;2022-08-21T01:02:41;5.77;;;5.10;;
5662;SDS011;2854;42.692;23.364;2022-08-21T01:05:06;9.50;;;5.10;;
5662;SDS011;2854;42.692;23.364;2022-08-21T01:07:32;7.73;;;5.27;;
5662;SDS011;2854;42.692;23.364;2022-08-21T01:09:57;10.20;;;5.30;;
5662;SDS011;2854;42.692;23.364;2022-08-21T01:12:23;12.90;;;5.43;;
5662;SDS011;2854;42.692;23.364;2022-08-21T01:14:49;10.77;;;5.57;;
5662;SDS011;2854;42.692;23.364;2022-08-21T01:17:14;8.77;;;5.10;;
5662;SDS011;2854;42.692;23.364;2022-08-21T01:19:40;8.93;;;5.47;;
5662;SDS011;2854;42.692;23.364;2022-08-21T01:22:06;11.43;;;5.57;;
5662;SDS011;2854;42.692;23.364;2022-08-21T01:24:31;6.67;;;5.60;;
5662;SDS011;2854;42.692;23.364;2022-08-21T01:26:57;9.87;;;6.50;;
5662;SDS011;2854;42.692;23.364;2022-08-21T01:31:48;11.53;;;7.90;;
5662;SDS011;2854;42.692;23.364;2022-08-21T01:34:14;11.27;;;7.70;;
5662;SDS011;2854;42.692;23.364;2022-08-21T01:36:41;11.20;;;7.50;;
5662;SDS011;2854;42.692;23.364;2022-08-21T01:39:07;14.60;;;8.73;;
5662;SDS011;2854;42.692;23.364;2022-08-21T01:41:32;18.83;;;10.03;;
5662;SDS011;2854;42.692;23.364;2022-08-21T01:43:57;12.50;;;7.63;;
5662;SDS011;2854;42.692;23.364;2022-08-21T01:46:23;13.60;;;7.57;;
5662;SDS011;2854;42.692;23.364;2022-08-21T01:48:49;14.53;;;7.70;;
5662;SDS011;2854;42.692;23.364;2022-08-21T01:51:14;12.40;;;7.13;;
5662;SDS011;2854;42.692;23.364;2022-08-21T01:53:39;15.00;;;7.70;;
5662;SDS011;2854;42.692;23.364;2022-08-21T01:56:06;11.27;;;6.43;;
5662;SDS011;2854;42.692;23.364;2022-08-21T01:58:32;16.57;;;7.63;;
5662;SDS011;2854;42.692;23.364;2022-08-21T02:00:59;16.67;;;8.30;;
5662;SDS011;2854;42.692;23.364;2022-08-21T02:03:24;14.80;;;7.90;;
5662;SDS011;2854;42.692;23.364;2022-08-21T02:05:49;18.27;;;8.70;;
5662;SDS011;2854;42.692;23.364;2022-08-21T02:08:15;15.20;;;8.37;;
5662;SDS011;2854;42.692;23.364;2022-08-21T02:10:40;18.33;;;9.27;;
5662;SDS011;2854;42.692;23.364;2022-08-21T02:13:06;22.37;;;8.83;;
5662;SDS011;2854;42.692;23.364;2022-08-21T02:15:32;14.80;;;7.60;;
5662;SDS011;2854;42.692;23.364;2022-08-21T02:17:58;22.37;;;10.00;;
5662;SDS011;2854;42.692;23.364;2022-08-21T02:22:49;24.27;;;9.80;;
5662;SDS011;2854;42.692;23.364;2022-08-21T02:25:15;19.50;;;9.20;;
5662;SDS011;2854;42.692;23.364;2022-08-21T02:27:41;19.87;;;8.30;;
5662;SDS011;2854;42.692;23.364;2022-08-21T02:30:07;17.63;;;9.77;;
5662;SDS011;2854;42.692;23.364;2022-08-21T02:32:32;18.53;;;8.87;;
5662;SDS011;2854;42.692;23.364;2022-08-21T02:34:58;21.10;;;10.60;;
5662;SDS011;2854;42.692;23.364;2022-08-21T02:37:24;19.90;;;9.40;;
5662;SDS011;2854;42.692;23.364;2022-08-21T02:39:49;22.67;;;8.33;;
5662;SDS011;2854;42.692;23.364;2022-08-21T02:42:14;20.63;;;10.30;;
5662;SDS011;2854;42.692;23.364;2022-08-21T02:44:40;14.10;;;7.83;;
5662;SDS011;2854;42.692;23.364;2022-08-21T02:47:05;25.30;;;10.60;;
5662;SDS011;2854;42.692;23.364;2022-08-21T02:49:30;17.10;;;9.20;;
5662;SDS011;2854;42.692;23.364;2022-08-21T02:51:56;23.37;;;8.83;;
5662;SDS011;2854;42.692;23.364;2022-08-21T02:54:21;17.23;;;8.60;;
5662;SDS011;2854;42.692;23.364;2022-08-21T02:56:46;19.77;;;9.23;;
5662;SDS011;2854;42.692;23.364;2022-08-21T02:59:11;20.80;;;10.20;;
5662;SDS011;2854;42.692;23.364;2022-08-21T03:01:37;17.23;;;9.13;;
5662;SDS011;2854;42.692;23.364;2022-08-21T03:04:02;17.10;;;9.10;;
5662;SDS011;2854;42.692;23.364;2022-08-21T03:06:28;13.63;;;8.80;;
5662;SDS011;2854;42.692;23.364;2022-08-21T03:08:54;18.73;;;8.90;;
5662;SDS011;2854;42.692;23.364;2022-08-21T03:11:19;14.10;;;8.33;;
5662;SDS011;2854;42.692;23.364;2022-08-21T03:13:45;13.53;;;7.57;;
5662;SDS011;2854;42.692;23.364;2022-08-21T03:16:11;13.03;;;7.13;;
5662;SDS011;2854;42.692;23.364;2022-08-21T03:18:37;16.87;;;8.83;;
5662;SDS011;2854;42.692;23.364;2022-08-21T03:21:02;10.57;;;7.60;;
5662;SDS011;2854;42.692;23.364;2022-08-21T03:23:27;15.33;;;8.60;;
5662;SDS011;2854;42.692;23.364;2022-08-21T03:25:55;19.17;;;8.33;;
5662;SDS011;2854;42.692;23.364;2022-08-21T03:28:21;15.93;;;8.33;;
5662;SDS011;2854;42.692;23.364;2022-08-21T03:30:49;10.77;;;6.20;;
5662;SDS011;2854;42.692;23.364;2022-08-21T03:33:16;13.67;;;7.17;;
5662;SDS011;2854;42.692;23.364;2022-08-21T03:35:42;15.57;;;8.77;;
5662;SDS011;2854;42.692;23.364;2022-08-21T03:38:08;9.47;;;6.80;;
5662;SDS011;2854;42.692;23.364;2022-08-21T03:40:33;13.37;;;6.90;;
5662;SDS011;2854;42.692;23.364;2022-08-21T03:42:58;12.27;;;7.00;;
5662;SDS011;2854;42.692;23.364;2022-08-21T03:45:24;12.90;;;6.50;;
5662;SDS011;2854;42.692;23.364;2022-08-21T03:47:56;11.90;;;6.53;;
5662;SDS011;2854;42.692;23.364;2022-08-21T03:50:23;7.60;;;6.57;;
5662;SDS011;2854;42.692;23.364;2022-08-21T03:52:49;10.87;;;6.40;;
5662;SDS011;2854;42.692;23.364;2022-08-21T03:55:14;11.87;;;6.77;;
5662;SDS011;2854;42.692;23.364;2022-08-21T03:57:40;8.30;;;6.20;;
5662;SDS011;2854;42.692;23.364;2022-08-21T04:00:05;11.73;;;6.17;;
5662;SDS011;2854;42.692;23.364;2022-08-21T04:02:34;11.53;;;5.50;;
5662;SDS011;2854;42.692;23.364;2022-08-21T04:05:00;6.00;;;4.03;;
5662;SDS011;2854;42.692;23.364;2022-08-21T04:07:26;9.77;;;5.53;;
5662;SDS011;2854;42.692;23.364;2022-08-21T04:09:51;5.90;;;4.47;;
5662;SDS011;2854;42.692;23.364;2022-08-21T04:12:16;6.30;;;5.03;;
5662;SDS011;2854;42.692;23.364;2022-08-21T04:14:42;5.27;;;4.77;;
5662;SDS011;2854;42.692;23.364;2022-08-21T04:17:07;5.90;;;4.70;;
5662;SDS011;2854;42.692;23.364;2022-08-21T04:19:32;6.37;;;4.50;;
5662;SDS011;2854;42.692;23.364;2022-08-21T04:21:57;5.13;;;4.63;;
5662;SDS011;2854;42.692;23.364;2022-08-21T04:24:23;12.00;;;5.17;;
5662;SDS011;2854;42.692;23.364;2022-08-21T04:26:48;5.87;;;4.40;;
5662;SDS011;2854;42.692;23.364;2022-08-21T04:29:13;5.30;;;4.40;;
5662;SDS011;2854;42.692;23.364;2022-08-21T04:31:39;5.20;;;4.70;;
5662;SDS011;2854;42.692;23.364;2022-08-21T04:34:04;7.57;;;4.30;;
5662;SDS011;2854;42.692;23.364;2022-08-21T04:36:30;8.83;;;4.77;;
5662;SDS011;2854;42.692;23.364;2022-08-21T04:38:56;7.30;;;5.90;;
5662;SDS011;2854;42.692;23.364;2022-08-21T04:41:21;7.70;;;5.13;;
5662;SDS011;2854;42.692;23.364;2022-08-21T04:43:46;5.90;;;4.57;;
5662;SDS011;2854;42.692;23.364;2022-08-21T04:46:12;6.43;;;4.87;;
5662;SDS011;2854;42.692;23.364;2022-08-21T04:48:37;5.53;;;4.57;;
5662;SDS011;2854;42.692;23.364;2022-08-21T04:51:05;6.80;;;4.83;;
5662;SDS011;2854;42.692;23.364;2022-08-21T04:56:04;8.37;;;5.27;;
5662;SDS011;2854;42.692;23.364;2022-08-21T04:58:32;6.83;;;5.33;;
5662;SDS011;2854;42.692;23.364;2022-08-21T05:00:58;7.80;;;5.40;;
5662;SDS011;2854;42.692;23.364;2022-08-21T05:03:25;7.20;;;5.77;;
5662;SDS011;2854;42.692;23.364;2022-08-21T05:05:50;7.10;;;6.10;;
5662;SDS011;2854;42.692;23.364;2022-08-21T05:08:17;14.90;;;7.10;;
5662;SDS011;2854;42.692;23.364;2022-08-21T05:10:43;10.13;;;6.00;;
5662;SDS011;2854;42.692;23.364;2022-08-21T05:13:09;9.80;;;6.07;;
5662;SDS011;2854;42.692;23.364;2022-08-21T05:15:35;8.70;;;6.00;;
5662;SDS011;2854;42.692;23.364;2022-08-21T05:18:02;6.63;;;5.87;;
5662;SDS011;2854;42.692;23.364;2022-08-21T05:20:28;6.67;;;4.73;;
5662;SDS011;2854;42.692;23.364;2022-08-21T05:22:53;11.23;;;5.70;;
5662;SDS011;2854;42.692;23.364;2022-08-21T05:25:19;12.20;;;6.50;;
5662;SDS011;2854;42.692;23.364;2022-08-21T05:27:44;15.93;;;5.70;;
5662;SDS011;2854;42.692;23.364;2022-08-21T05:30:10;6.03;;;4.87;;
5662;SDS011;2854;42.692;23.364;2022-08-21T05:32:35;7.00;;;5.20;;
5662;SDS011;2854;42.692;23.364;2022-08-21T05:35:02;6.53;;;5.67;;
5662;SDS011;2854;42.692;23.364;2022-08-21T05:37:27;7.93;;;6.10;;
5662;SDS011;2854;42.692;23.364;2022-08-21T05:39:53;8.53;;;5.87;;
5662;SDS011;2854;42.692;23.364;2022-08-21T05:42:18;7.90;;;5.20;;
5662;SDS011;2854;42.692;23.364;2022-08-21T05:44:43;10.87;;;6.33;;
5662;SDS011;2854;42.692;23.364;2022-08-21T05:47:09;6.90;;;5.50;;
5662;SDS011;2854;42.692;23.364;2022-08-21T05:49:35;5.20;;;4.70;;
5662;SDS011;2854;42.692;23.364;2022-08-21T05:52:00;7.97;;;5.47;;
5662;SDS011;2854;42.692;23.364;2022-08-21T05:54:26;8.57;;;6.00;;
5662;SDS011;2854;42.692;23.364;2022-08-21T05:56:51;7.10;;;6.20;;
5662;SDS011;2854;42.692;23.364;2022-08-21T05:59:16;9.13;;;6.27;;
5662;SDS011;2854;42.692;23.364;2022-08-21T06:01:43;6.07;;;5.40;;
5662;SDS011;2854;42.692;23.364;2022-08-21T06:04:10;8.70;;;5.50;;
5662;SDS011;2854;42.692;23.364;2022-08-21T06:06:35;10.43;;;6.00;;
5662;SDS011;2854;42.692;23.364;2022-08-21T06:09:00;6.90;;;5.97;;
5662;SDS011;2854;42.692;23.364;2022-08-21T06:11:26;5.63;;;5.07;;
5662;SDS011;2854;42.692;23.364;2022-08-21T06:13:51;9.27;;;5.60;;
5662;SDS011;2854;42.692;23.364;2022-08-21T06:16:17;9.60;;;5.60;;
5662;SDS011;2854;42.692;23.364;2022-08-21T06:18:43;7.70;;;4.87;;
5662;SDS011;2854;42.692;23.364;2022-08-21T06:21:09;9.00;;;5.40;;
5662;SDS011;2854;42.692;23.364;2022-08-21T06:23:36;6.90;;;5.00;;
5662;SDS011;2854;42.692;23.364;2022-08-21T06:26:02;8.27;;;5.47;;
5662;SDS011;2854;42.692;23.364;2022-08-21T06:28:28;11.43;;;5.33;;
5662;SDS011;2854;42.692;23.364;2022-08-21T06:30:53;5.37;;;4.83;;
5662;SDS011;2854;42.692;23.364;2022-08-21T06:33:19;7.70;;;5.50;;
5662;SDS011;2854;42.692;23.364;2022-08-21T06:35:44;7.37;;;4.80;;
5662;SDS011;2854;42.692;23.364;2022-08-21T06:38:09;6.07;;;4.97;;
5662;SDS011;2854;42.692;23.364;2022-08-21T06:40:35;7.87;;;5.17;;
5662;SDS011;2854;42.692;23.364;2022-08-21T06:43:10;8.60;;;6.10;;
5662;SDS011;2854;42.692;23.364;2022-08-21T06:45:36;6.73;;;4.80;;
5662;SDS011;2854;42.692;23.364;2022-08-21T06:48:01;9.43;;;5.27;;
5662;SDS011;2854;42.692;23.364;2022-08-21T06:50:27;9.27;;;4.97;;
5662;SDS011;2854;42.692;23.364;2022-08-21T06:53:00;5.80;;;5.20;;
5662;SDS011;2854;42.692;23.364;2022-08-21T06:55:25;6.73;;;4.67;;
5662;SDS011;2854;42.692;23.364;2022-08-21T06:57:50;7.03;;;5.43;;
5662;SDS011;2854;42.692;23.364;2022-08-21T07:00:16;8.60;;;4.53;;
5662;SDS011;2854;42.692;23.364;2022-08-21T07:02:41;10.50;;;4.83;;
5662;SDS011;2854;42.692;23.364;2022-08-21T07:05:06;5.63;;;4.50;;
5662;SDS011;2854;42.692;23.364;2022-08-21T07:07:32;5.17;;;4.67;;
5662;SDS011;2854;42.692;23.364;2022-08-21T07:09:57;4.80;;;4.30;;
5662;SDS011;2854;42.692;23.364;2022-08-21T07:12:22;8.03;;;4.07;;
5662;SDS011;2854;42.692;23.364;2022-08-21T07:14:48;5.53;;;4.50;;
5662;SDS011;2854;42.692;23.364;2022-08-21T07:17:13;6.67;;;4.90;;
5662;SDS011;2854;42.692;23.364;2022-08-21T07:19:38;7.23;;;5.40;;
5662;SDS011;2854;42.692;23.364;2022-08-21T07:22:04;6.43;;;4.40;;
5662;SDS011;2854;42.692;23.364;2022-08-21T07:24:29;6.07;;;5.43;;
5662;SDS011;2854;42.692;23.364;2022-08-21T07:26:55;6.87;;;4.50;;
5662;SDS011;2854;42.692;23.364;2022-08-21T07:29:20;7.10;;;4.53;;
5662;SDS011;2854;42.692;23.364;2022-08-21T07:31:45;6.73;;;4.87;;
5662;SDS011;2854;42.692;23.364;2022-08-21T07:34:10;7.10;;;4.00;;
5662;SDS011;2854;42.692;23.364;2022-08-21T07:36:36;4.97;;;4.57;;
5662;SDS011;2854;42.692;23.364;2022-08-21T07:39:01;6.30;;;4.23;;
5662;SDS011;2854;42.692;23.364;2022-08-21T07:41:27;9.80;;;3.93;;
5662;SDS011;2854;42.692;23.364;2022-08-21T07:43:54;7.30;;;3.73;;
5662;SDS011;2854;42.692;23.364;2022-08-21T07:46:19;4.33;;;3.93;;
5662;SDS011;2854;42.692;23.364;2022-08-21T07:48:45;4.80;;;4.03;;
5662;SDS011;2854;42.692;23.364;2022-08-21T07:51:13;8.07;;;4.57;;
5662;SDS011;2854;42.692;23.364;2022-08-21T07:53:38;4.50;;;4.10;;
5662;SDS011;2854;42.692;23.364;2022-08-21T07:56:04;4.33;;;3.80;;
5662;SDS011;2854;42.692;23.364;2022-08-21T07:58:30;8.30;;;3.30;;
5662;SDS011;2854;42.692;23.364;2022-08-21T08:00:55;5.20;;;3.37;;
5662;SDS011;2854;42.692;23.364;2022-08-21T08:03:21;4.40;;;3.40;;
5662;SDS011;2854;42.692;23.364;2022-08-21T08:05:46;3.80;;;3.60;;
5662;SDS011;2854;42.692;23.364;2022-08-21T08:08:11;6.27;;;4.83;;
5662;SDS011;2854;42.692;23.364;2022-08-21T08:10:37;6.03;;;4.37;;
5662;SDS011;2854;42.692;23.364;2022-08-21T08:13:03;4.60;;;3.83;;
5662;SDS011;2854;42.692;23.364;2022-08-21T08:15:28;3.53;;;3.23;;
5662;SDS011;2854;42.692;23.364;2022-08-21T08:17:54;5.13;;;4.60;;
5662;SDS011;2854;42.692;23.364;2022-08-21T08:20:20;5.67;;;4.10;;
5662;SDS011;2854;42.692;23.364;2022-08-21T08:22:47;7.40;;;4.00;;
5662;SDS011;2854;42.692;23.364;2022-08-21T08:25:13;5.00;;;4.50;;
5662;SDS011;2854;42.692;23.364;2022-08-21T08:27:39;12.40;;;4.80;;
5662;SDS011;2854;42.692;23.364;2022-08-21T08:30:05;6.53;;;4.50;;
5662;SDS011;2854;42.692;23.364;2022-08-21T08:32:31;5.03;;;4.47;;
5662;SDS011;2854;42.692;23.364;2022-08-21T08:34:56;5.03;;;4.50;;
5662;SDS011;2854;42.692;23.364;2022-08-21T08:37:21;5.80;;;4.63;;
5662;SDS011;2854;42.692;23.364;2022-08-21T08:39:47;6.67;;;4.33;;
5662;SDS011;2854;42.692;23.364;2022-08-21T08:42:19;4.83;;;4.17;;
5662;SDS011;2854;42.692;23.364;2022-08-21T08:44:47;8.00;;;4.83;;
5662;SDS011;2854;42.692;23.364;2022-08-21T08:47:13;5.70;;;3.97;;
5662;SDS011;2854;42.692;23.364;2022-08-21T08:52:30;17.17;;;5.87;;
5662;SDS011;2854;42.692;23.364;2022-08-21T08:57:27;10.10;;;5.30;;
5662;SDS011;2854;42.692;23.364;2022-08-21T08:59:53;8.17;;;5.07;;
5662;SDS011;2854;42.692;23.364;2022-08-21T09:02:20;4.53;;;4.23;;
5662;SDS011;2854;42.692;23.364;2022-08-21T09:04:48;6.83;;;4.70;;
5662;SDS011;2854;42.692;23.364;2022-08-21T09:12:34;5.43;;;4.70;;
5662;SDS011;2854;42.692;23.364;2022-08-21T09:20:38;5.07;;;4.30;;
5662;SDS011;2854;42.692;23.364;2022-08-21T09:25:32;4.37;;;4.00;;
5662;SDS011;2854;42.692;23.364;2022-08-21T09:27:58;4.70;;;4.30;;
5662;SDS011;2854;42.692;23.364;2022-08-21T09:30:27;4.37;;;4.07;;
5662;SDS011;2854;42.692;23.364;2022-08-21T09:32:53;5.53;;;3.93;;
5662;SDS011;2854;42.692;23.364;2022-08-21T09:35:19;4.20;;;3.73;;
5662;SDS011;2854;42.692;23.364;2022-08-21T09:42:58;4.30;;;3.90;;
5662;SDS011;2854;42.692;23.364;2022-08-21T09:45:25;4.13;;;3.60;;
5662;SDS011;2854;42.692;23.364;2022-08-21T09:47:50;5.43;;;3.57;;
5662;SDS011;2854;42.692;23.364;2022-08-21T09:50:18;3.57;;;3.17;;
5662;SDS011;2854;42.692;23.364;2022-08-21T09:52:49;8.20;;;4.13;;
5662;SDS011;2854;42.692;23.364;2022-08-21T09:55:16;3.40;;;3.20;;
5662;SDS011;2854;42.692;23.364;2022-08-21T09:58:03;4.27;;;3.97;;
5662;SDS011;2854;42.692;23.364;2022-08-21T10:00:30;5.83;;;4.10;;
5662;SDS011;2854;42.692;23.364;2022-08-21T10:06:03;3.67;;;3.47;;
5662;SDS011;2854;42.692;23.364;2022-08-21T10:08:30;3.93;;;3.13;;
5662;SDS011;2854;42.692;23.364;2022-08-21T10:10:57;19.43;;;4.53;;
5662;SDS011;2854;42.692;23.364;2022-08-21T10:14:28;5.13;;;4.10;;
5662;SDS011;2854;42.692;23.364;2022-08-21T10:24:29;6.30;;;3.57;;
5662;SDS011;2854;42.692;23.364;2022-08-21T10:27:06;3.53;;;3.33;;
5662;SDS011;2854;42.692;23.364;2022-08-21T10:34:51;3.93;;;3.63;;
5662;SDS011;2854;42.692;23.364;2022-08-21T10:40:19;3.63;;;3.33;;
5662;SDS011;2854;42.692;23.364;2022-08-21T10:47:54;4.70;;;3.90;;
5662;SDS011;2854;42.692;23.364;2022-08-21T10:50:36;3.70;;;3.40;;
5662;SDS011;2854;42.692;23.364;2022-08-21T10:53:19;3.27;;;3.07;;
5662;SDS011;2854;42.692;23.364;2022-08-21T10:56:01;3.30;;;3.00;;
5662;SDS011;2854;42.692;23.364;2022-08-21T10:58:37;3.70;;;3.33;;
5662;SDS011;2854;42.692;23.364;2022-08-21T11:01:11;3.77;;;3.17;;
5662;SDS011;2854;42.692;23.364;2022-08-21T11:03:50;4.00;;;3.67;;
5662;SDS011;2854;42.692;23.364;2022-08-21T11:06:27;4.77;;;3.00;;
5662;SDS011;2854;42.692;23.364;2022-08-21T11:08:55;4.23;;;3.77;;
5662;SDS011;2854;42.692;23.364;2022-08-21T11:11:26;5.53;;;3.63;;
5662;SDS011;2854;42.692;23.364;2022-08-21T11:13:57;3.70;;;2.90;;
5662;SDS011;2854;42.692;23.364;2022-08-21T11:16:35;4.47;;;4.10;;
5662;SDS011;2854;42.692;23.364;2022-08-21T11:19:04;4.47;;;3.60;;
5662;SDS011;2854;42.692;23.364;2022-08-21T11:26:35;2.90;;;2.70;;
5662;SDS011;2854;42.692;23.364;2022-08-21T11:29:14;2.83;;;2.60;;
5662;SDS011;2854;42.692;23.364;2022-08-21T11:32:00;3.70;;;3.00;;
5662;SDS011;2854;42.692;23.364;2022-08-21T11:34:32;3.37;;;3.07;;
5662;SDS011;2854;42.692;23.364;2022-08-21T11:37:04;3.13;;;2.87;;
5662;SDS011;2854;42.692;23.364;2022-08-21T11:39:38;4.80;;;3.30;;
5662;SDS011;2854;42.692;23.364;2022-08-21T11:47:19;3.30;;;3.10;;
5662;SDS011;2854;42.692;23.364;2022-08-21T11:52:43;3.20;;;3.00;;
5662;SDS011;2854;42.692;23.364;2022-08-21T11:57:46;7.63;;;3.27;;
5662;SDS011;2854;42.692;23.364;2022-08-21T12:00:28;3.10;;;2.90;;
5662;SDS011;2854;42.692;23.364;2022-08-21T12:02:55;3.60;;;3.30;;
5662;SDS011;2854;42.692;23.364;2022-08-21T12:05:23;7.53;;;3.90;;
5662;SDS011;2854;42.692;23.364;2022-08-21T12:07:59;3.27;;;3.07;;
5662;SDS011;2854;42.692;23.364;2022-08-21T12:10:30;7.47;;;3.13;;
5662;SDS011;2854;42.692;23.364;2022-08-21T12:13:04;3.43;;;3.20;;
5662;SDS011;2854;42.692;23.364;2022-08-21T12:15:30;6.17;;;4.07;;
5662;SDS011;2854;42.692;23.364;2022-08-21T12:23:44;3.87;;;3.57;;
5662;SDS011;2854;42.692;23.364;2022-08-21T12:25:59;3.70;;;3.40;;
5662;SDS011;2854;42.692;23.364;2022-08-21T12:28:25;4.20;;;3.80;;
5662;SDS011;2854;42.692;23.364;2022-08-21T12:30:51;3.40;;;3.10;;
5662;SDS011;2854;42.692;23.364;2022-08-21T12:35:45;3.87;;;3.57;;
5662;SDS011;2854;42.692;23.364;2022-08-21T12:41:17;3.93;;;3.63;;
5662;SDS011;2854;42.692;23.364;2022-08-21T12:43:47;3.53;;;3.20;;
5662;SDS011;2854;42.692;23.364;2022-08-21T12:48:59;7.47;;;3.27;;
5662;SDS011;2854;42.692;23.364;2022-08-21T12:51:33;4.50;;;4.10;;
5662;SDS011;2854;42.692;23.364;2022-08-21T12:53:59;5.83;;;3.60;;
5662;SDS011;2854;42.692;23.364;2022-08-21T12:56:26;6.90;;;3.47;;
5662;SDS011;2854;42.692;23.364;2022-08-21T12:58:54;5.83;;;3.00;;
5662;SDS011;2854;42.692;23.364;2022-08-21T13:03:50;4.20;;;3.60;;
5662;SDS011;2854;42.692;23.364;2022-08-21T13:06:16;3.30;;;3.10;;
5662;SDS011;2854;42.692;23.364;2022-08-21T13:08:43;4.67;;;3.90;;
5662;SDS011;2854;42.692;23.364;2022-08-21T13:11:09;4.30;;;3.40;;
5662;SDS011;2854;42.692;23.364;2022-08-21T13:13:34;3.63;;;3.27;;
5662;SDS011;2854;42.692;23.364;2022-08-21T13:16:04;3.30;;;3.00;;
5662;SDS011;2854;42.692;23.364;2022-08-21T13:18:31;4.30;;;3.70;;
5662;SDS011;2854;42.692;23.364;2022-08-21T13:21:04;3.80;;;3.50;;
5662;SDS011;2854;42.692;23.364;2022-08-21T13:23:29;3.57;;;3.23;;
5662;SDS011;2854;42.692;23.364;2022-08-21T13:25:55;4.53;;;4.13;;
5662;SDS011;2854;42.692;23.364;2022-08-21T13:28:21;4.03;;;3.60;;
5662;SDS011;2854;42.692;23.364;2022-08-21T13:30:50;4.57;;;3.37;;
5662;SDS011;2854;42.692;23.364;2022-08-21T13:33:16;4.00;;;2.90;;
5662;SDS011;2854;42.692;23.364;2022-08-21T13:35:50;2.87;;;2.67;;
5662;SDS011;2854;42.692;23.364;2022-08-21T13:38:16;2.87;;;2.67;;
5662;SDS011;2854;42.692;23.364;2022-08-21T13:40:45;9.90;;;2.90;;
5662;SDS011;2854;42.692;23.364;2022-08-21T13:43:16;5.10;;;3.20;;
5662;SDS011;2854;42.692;23.364;2022-08-21T13:45:43;4.20;;;2.80;;
5662;SDS011;2854;42.692;23.364;2022-08-21T13:48:08;3.43;;;3.10;;
5662;SDS011;2854;42.692;23.364;2022-08-21T13:50:34;2.80;;;2.60;;
5662;SDS011;2854;42.692;23.364;2022-08-21T13:53:05;3.13;;;2.93;;
5662;SDS011;2854;42.692;23.364;2022-08-21T13:55:42;3.67;;;3.27;;
5662;SDS011;2854;42.692;23.364;2022-08-21T13:58:07;2.80;;;2.60;;
5662;SDS011;2854;42.692;23.364;2022-08-21T14:00:34;3.10;;;2.70;;
5662;SDS011;2854;42.692;23.364;2022-08-21T14:03:07;2.97;;;2.77;;
5662;SDS011;2854;42.692;23.364;2022-08-21T14:05:34;3.33;;;3.13;;
5662;SDS011;2854;42.692;23.364;2022-08-21T14:08:05;5.60;;;3.10;;
5662;SDS011;2854;42.692;23.364;2022-08-21T14:10:31;3.03;;;2.83;;
5662;SDS011;2854;42.692;23.364;2022-08-21T14:13:04;7.80;;;3.10;;
5662;SDS011;2854;42.692;23.364;2022-08-21T14:15:31;4.10;;;3.80;;
5662;SDS011;2854;42.692;23.364;2022-08-21T14:18:17;3.30;;;3.10;;
5662;SDS011;2854;42.692;23.364;2022-08-21T14:20:43;3.97;;;3.57;;
5662;SDS011;2854;42.692;23.364;2022-08-21T14:23:09;3.10;;;2.80;;
5662;SDS011;2854;42.692;23.364;2022-08-21T14:25:39;3.13;;;2.93;;
5662;SDS011;2854;42.692;23.364;2022-08-21T14:30:40;3.23;;;3.03;;
5662;SDS011;2854;42.692;23.364;2022-08-21T14:33:11;3.40;;;3.10;;
5662;SDS011;2854;42.692;23.364;2022-08-21T14:35:37;4.40;;;4.10;;
5662;SDS011;2854;42.692;23.364;2022-08-21T14:38:05;3.57;;;3.30;;
5662;SDS011;2854;42.692;23.364;2022-08-21T14:40:35;6.00;;;3.80;;
5662;SDS011;2854;42.692;23.364;2022-08-21T14:43:01;4.57;;;4.20;;
5662;SDS011;2854;42.692;23.364;2022-08-21T14:45:28;4.90;;;4.50;;
5662;SDS011;2854;42.692;23.364;2022-08-21T14:47:54;5.30;;;3.77;;
5662;SDS011;2854;42.692;23.364;2022-08-21T14:50:20;4.77;;;3.70;;
5662;SDS011;2854;42.692;23.364;2022-08-21T14:52:45;4.50;;;3.60;;
5662;SDS011;2854;42.692;23.364;2022-08-21T14:55:11;3.17;;;2.97;;
5662;SDS011;2854;42.692;23.364;2022-08-21T14:57:39;3.47;;;3.27;;
5662;SDS011;2854;42.692;23.364;2022-08-21T15:00:05;3.40;;;3.20;;
5662;SDS011;2854;42.692;23.364;2022-08-21T15:02:31;3.00;;;2.70;;
5662;SDS011;2854;42.692;23.364;2022-08-21T15:04:56;7.13;;;3.33;;
5662;SDS011;2854;42.692;23.364;2022-08-21T15:07:22;3.83;;;3.57;;
5662;SDS011;2854;42.692;23.364;2022-08-21T15:09:47;3.63;;;3.33;;
5662;SDS011;2854;42.692;23.364;2022-08-21T15:12:12;4.00;;;3.67;;
5662;SDS011;2854;42.692;23.364;2022-08-21T15:14:38;3.10;;;2.90;;
5662;SDS011;2854;42.692;23.364;2022-08-21T15:17:05;5.70;;;3.73;;
5662;SDS011;2854;42.692;23.364;2022-08-21T15:19:30;5.87;;;5.10;;
5662;SDS011;2854;42.692;23.364;2022-08-21T15:21:56;4.47;;;3.70;;
5662;SDS011;2854;42.692;23.364;2022-08-21T15:24:21;4.10;;;3.70;;
5662;SDS011;2854;42.692;23.364;2022-08-21T15:26:46;3.80;;;3.50;;
5662;SDS011;2854;42.692;23.364;2022-08-21T15:29:12;4.50;;;3.87;;
5662;SDS011;2854;42.692;23.364;2022-08-21T15:31:39;4.40;;;4.00;;
5662;SDS011;2854;42.692;23.364;2022-08-21T15:34:13;6.50;;;3.90;;
5662;SDS011;2854;42.692;23.364;2022-08-21T15:36:39;4.77;;;3.60;;
5662;SDS011;2854;42.692;23.364;2022-08-21T15:39:04;3.97;;;3.67;;
5662;SDS011;2854;42.692;23.364;2022-08-21T15:41:29;5.40;;;4.17;;
5662;SDS011;2854;42.692;23.364;2022-08-21T15:43:55;3.70;;;3.40;;
5662;SDS011;2854;42.692;23.364;2022-08-21T15:46:20;5.40;;;3.70;;
5662;SDS011;2854;42.692;23.364;2022-08-21T15:48:46;3.80;;;3.57;;
5662;SDS011;2854;42.692;23.364;2022-08-21T15:51:11;4.57;;;4.17;;
5662;SDS011;2854;42.692;23.364;2022-08-21T15:53:37;3.40;;;3.10;;
5662;SDS011;2854;42.692;23.364;2022-08-21T15:56:05;4.00;;;3.60;;
5662;SDS011;2854;42.692;23.364;2022-08-21T15:58:31;4.10;;;3.20;;
5662;SDS011;2854;42.692;23.364;2022-08-21T16:00:58;5.57;;;3.80;;
5662;SDS011;2854;42.692;23.364;2022-08-21T16:03:23;5.10;;;3.90;;
5662;SDS011;2854;42.692;23.364;2022-08-21T16:05:50;4.47;;;4.07;;
5662;SDS011;2854;42.692;23.364;2022-08-21T16:08:17;4.00;;;3.70;;
5662;SDS011;2854;42.692;23.364;2022-08-21T16:10:42;5.30;;;3.43;;
5662;SDS011;2854;42.692;23.364;2022-08-21T16:13:12;5.10;;;3.97;;
5662;SDS011;2854;42.692;23.364;2022-08-21T16:15:39;5.20;;;4.00;;
5662;SDS011;2854;42.692;23.364;2022-08-21T16:18:04;3.80;;;3.43;;
5662;SDS011;2854;42.692;23.364;2022-08-21T16:20:30;5.50;;;3.87;;
5662;SDS011;2854;42.692;23.364;2022-08-21T16:22:56;4.17;;;3.80;;
5662;SDS011;2854;42.692;23.364;2022-08-21T16:25:21;8.67;;;4.30;;
5662;SDS011;2854;42.692;23.364;2022-08-21T16:27:49;4.37;;;4.00;;
5662;SDS011;2854;42.692;23.364;2022-08-21T16:30:16;4.30;;;3.57;;